Time;durP1;ratioP1;P1;durP2;ratioP2;P2;SDS_P1;SDS_P2;PMS_P1;PMS_P2;Temp;Humidity;BMP_temperature;BMP_pressure;BME280_temperature;BME280_humidity;BME280_pressure;Samples;Min_cycle;Max_cycle;Signal;HPM_P1;HPM_P2
2023/06/21 00:00:12;;;;;;;;;31.00;28.33;;;;;19.45;100.00;99628.56;6280852;20;3580225;-60
2023/06/21 00:02:44;;;;;;;;;33.33;30.67;;;;;19.13;100.00;99623.59;6281095;20;3594122;-59
2023/06/21 00:05:12;;;;;;;;;31.33;30.00;;;;;19.24;100.00;99623.38;6282144;20;3587723;-60
2023/06/21 00:07:41;;;;;;;;;30.00;29.00;;;;;19.30;100.00;99622.81;6279287;20;3600421;-60
2023/06/21 00:10:10;;;;;;;;;37.00;31.33;;;;;19.03;100.00;99623.63;6278648;20;3602393;-60
2023/06/21 00:12:38;;;;;;;;;32.00;30.00;;;;;19.07;100.00;99622.34;6283036;20;3579421;-60
2023/06/21 00:15:07;;;;;;;;;27.33;27.33;;;;;18.77;100.00;99624.34;6280493;20;3594107;-60
2023/06/21 00:17:36;;;;;;;;;34.67;31.67;;;;;19.00;100.00;99624.78;6285176;20;3588880;-60
2023/06/21 00:20:09;;;;;;;;;34.33;31.67;;;;;18.81;100.00;99619.44;6278269;20;3600277;-60
2023/06/21 00:22:39;;;;;;;;;40.25;32.75;;;;;18.86;100.00;99617.13;6310016;20;3618160;-60
2023/06/21 00:25:08;;;;;;;;;35.50;32.75;;;;;18.71;100.00;99610.41;6311884;20;3610691;-60
2023/06/21 00:27:36;;;;;;;;;34.33;30.33;;;;;18.88;100.00;99612.41;6308982;20;3569027;-60
2023/06/21 00:30:06;;;;;;;;;36.00;31.00;;;;;18.81;100.00;99608.56;6273095;20;3579751;-60
2023/06/21 00:32:34;;;;;;;;;25.33;25.33;;;;;19.09;100.00;99606.72;6283921;20;3598214;-60
2023/06/21 00:35:03;;;;;;;;;33.33;30.33;;;;;18.96;100.00;99607.06;6284076;20;3612747;-60
2023/06/21 00:37:32;;;;;;;;;35.67;31.33;;;;;18.95;100.00;99599.91;6284565;20;3610726;-60
2023/06/21 00:40:07;;;;;;;;;34.67;31.00;;;;;19.00;100.00;99599.44;6314459;20;3594184;-60
2023/06/21 00:42:35;;;;;;;;;31.00;29.00;;;;;18.85;100.00;99596.34;6285576;20;3585679;-60
2023/06/21 00:45:05;;;;;;;;;31.00;29.00;;;;;19.13;100.00;99604.53;6279740;20;3581976;-60
2023/06/21 00:47:34;;;;;;;;;35.33;31.33;;;;;18.86;100.00;99600.81;6286050;20;3596175;-60
2023/06/21 00:50:02;;;;;;;;;26.33;26.33;;;;;18.87;100.00;99607.94;6284547;20;3591032;-60
2023/06/21 00:52:32;;;;;;;;;29.00;28.67;;;;;18.84;100.00;99610.97;6288476;20;3581623;-60
2023/06/21 00:55:00;;;;;;;;;35.00;30.00;;;;;18.83;100.00;99598.41;6281782;20;3582596;-60
2023/06/21 00:57:29;;;;;;;;;30.33;30.00;;;;;18.77;100.00;99604.41;6282006;20;2845093;-60
2023/06/21 00:59:57;;;;;;;;;32.33;30.00;;;;;18.83;100.00;99614.72;6315440;20;3594068;-60
2023/06/21 01:02:26;;;;;;;;;34.33;32.00;;;;;18.87;100.00;99610.66;6281380;20;3598367;-60
2023/06/21 01:04:54;;;;;;;;;33.67;32.00;;;;;18.93;100.00;99615.53;6285991;20;3581503;-60
2023/06/21 01:08:05;;;;;;;;;34.33;30.00;;;;;18.84;100.00;99608.25;6281310;20;3588937;-60
2023/06/21 01:11:10;;;;;;;;;30.00;29.33;;;;;18.84;100.00;99616.41;6315428;20;3582554;-60
2023/06/21 01:14:18;;;;;;;;;35.33;30.67;;;;;18.60;100.00;99616.91;6284402;20;3593968;-59
2023/06/21 01:16:50;;;;;;;;;37.33;33.00;;;;;18.78;100.00;99622.47;6290238;20;3581496;-60
2023/06/21 01:19:39;;;;;;;;;35.33;32.00;;;;;18.61;100.00;99632.19;6286069;20;3601270;-60
2023/06/21 01:22:32;;;;;;;;;34.50;32.00;;;;;18.65;100.00;99633.63;6279777;20;3554390;-59
2023/06/21 01:25:46;;;;;;;;;39.33;32.33;;;;;18.37;100.00;99640.84;6275704;20;2848317;-59
2023/06/21 01:28:31;;;;;;;;;33.33;31.67;;;;;18.29;100.00;99633.41;6311318;20;3591933;-59
2023/06/21 01:31:01;;;;;;;;;37.00;31.67;;;;;18.01;100.00;99624.31;6280411;20;3600250;-59
2023/06/21 01:33:32;;;;;;;;;32.67;31.00;;;;;17.80;100.00;99621.72;6281439;20;3594028;-59
2023/06/21 01:36:04;;;;;;;;;34.33;30.67;;;;;17.87;100.00;99622.00;6284152;20;3608641;-60
2023/06/21 01:38:33;;;;;;;;;32.00;28.33;;;;;17.90;100.00;99619.84;6281703;20;3602385;-59
2023/06/21 01:41:01;;;;;;;;;31.33;30.00;;;;;18.13;100.00;99625.84;6284829;20;3592997;-59
2023/06/21 01:43:31;;;;;;;;;32.00;28.00;;;;;18.08;100.00;99616.41;6280984;20;3596197;-61
2023/06/21 01:46:03;;;;;;;;;34.00;31.33;;;;;18.15;100.00;99615.69;6282414;20;2852931;-59
2023/06/21 01:48:34;;;;;;;;;35.00;31.33;;;;;18.06;100.00;99610.25;6318054;20;3596182;-59
2023/06/21 01:51:04;;;;;;;;;35.33;32.00;;;;;18.21;100.00;99615.09;6280235;20;3608678;-59
2023/06/21 01:53:34;;;;;;;;;33.00;29.67;;;;;18.28;100.00;99611.84;6309450;20;3574230;-59
2023/06/21 01:56:08;;;;;;;;;32.67;31.33;;;;;18.38;100.00;99609.94;6278669;20;3595076;-59
2023/06/21 01:58:37;;;;;;;;;36.33;33.00;;;;;18.25;100.00;99614.84;6277837;20;3609725;-59
2023/06/21 02:01:07;;;;;;;;;36.33;30.33;;;;;18.12;100.00;99610.56;6280065;20;3603494;-59
2023/06/21 02:03:38;;;;;;;;;36.50;32.00;;;;;17.96;100.00;99607.56;6281717;20;2667993;-59
2023/06/21 02:06:08;;;;;;;;;32.67;29.67;;;;;17.88;100.00;99611.00;6282352;20;3586787;-59
2023/06/21 02:08:38;;;;;;;;;31.33;30.33;;;;;17.91;100.00;99607.16;6281625;20;3596086;-59
2023/06/21 02:11:07;;;;;;;;;36.67;30.67;;;;;18.01;100.00;99612.56;6282792;20;3595085;-59
2023/06/21 02:13:36;;;;;;;;;32.67;30.33;;;;;17.82;100.00;99614.28;6284461;20;3587832;-59
2023/06/21 02:16:04;;;;;;;;;36.33;32.33;;;;;17.86;100.00;99617.59;6282836;20;3599229;-59
2023/06/21 02:18:32;;;;;;;;;33.67;31.67;;;;;17.78;100.00;99619.09;6281576;20;3597389;-59
2023/06/21 02:21:01;;;;;;;;;37.00;33.33;;;;;17.90;100.00;99610.84;6281729;20;3614979;-60
2023/06/21 02:23:29;;;;;;;;;34.00;32.00;;;;;17.69;100.00;99609.13;6282296;20;3498212;-59
2023/06/21 02:25:57;;;;;;;;;31.67;30.67;;;;;17.69;100.00;99609.13;6311771;20;3583644;-59
2023/06/21 02:28:25;;;;;;;;;33.33;31.33;;;;;17.75;100.00;99613.13;6280628;20;3586754;-59
2023/06/21 02:30:53;;;;;;;;;36.00;30.00;;;;;17.63;100.00;99608.81;6280545;20;3584740;-59
2023/06/21 02:33:22;;;;;;;;;37.33;33.00;;;;;17.66;100.00;99603.94;6282376;20;3589894;-59
2023/06/21 02:35:50;;;;;;;;;34.00;32.00;;;;;17.82;100.00;99597.97;6281612;20;3592961;-60
2023/06/21 02:38:19;;;;;;;;;31.00;29.00;;;;;17.91;100.00;99601.72;6285456;20;3580447;-59
2023/06/21 02:40:49;;;;;;;;;33.67;31.67;;;;;17.80;100.00;99604.56;6281523;20;3580597;-59
2023/06/21 02:43:17;;;;;;;;;37.00;30.00;;;;;17.74;100.00;99611.38;6285013;20;3598197;-60
2023/06/21 02:45:47;;;;;;;;;29.50;26.25;;;;;17.61;100.00;99610.81;6276118;20;3606527;-59
2023/06/21 02:48:15;;;;;;;;;36.67;29.67;;;;;17.77;100.00;99608.38;6314870;20;3607701;-59
2023/06/21 02:50:43;;;;;;;;;35.67;30.00;;;;;17.68;100.00;99612.81;6281877;20;3600347;-59
2023/06/21 02:53:11;;;;;;;;;42.67;35.00;;;;;17.68;100.00;99611.97;6281491;20;3600293;-59
2023/06/21 02:55:39;;;;;;;;;31.67;29.00;;;;;17.51;100.00;99614.38;6280884;20;3581679;-59
2023/06/21 02:58:08;;;;;;;;;33.67;31.67;;;;;17.59;100.00;99613.69;6279684;20;3591923;-59
2023/06/21 03:00:36;;;;;;;;;38.33;32.00;;;;;17.66;100.00;99619.38;6285468;20;3611809;-59
2023/06/21 03:03:05;;;;;;;;;37.00;33.67;;;;;17.77;100.00;99620.13;6281338;20;3600411;-59
2023/06/21 03:05:34;;;;;;;;;34.00;30.67;;;;;17.65;100.00;99618.53;6276640;20;2855668;-59
2023/06/21 03:08:04;;;;;;;;;31.33;30.33;;;;;17.74;100.00;99628.53;6311863;20;3583616;-60
2023/06/21 03:10:33;;;;;;;;;34.00;32.33;;;;;17.91;100.00;99623.44;6281624;20;3591014;-59
2023/06/21 03:13:02;;;;;;;;;34.67;31.00;;;;;17.99;100.00;99626.31;6280402;20;3594082;-59
2023/06/21 03:15:31;;;;;;;;;33.33;30.00;;;;;17.81;100.00;99628.88;6313738;20;3594012;-60
2023/06/21 03:17:59;;;;;;;;;35.00;32.33;;;;;17.68;100.00;99626.38;6281610;20;3595037;-60
2023/06/21 03:20:28;;;;;;;;;37.75;30.75;;;;;17.66;100.00;99633.81;6284545;20;3613833;-60
2023/06/21 03:22:57;;;;;;;;;36.67;32.00;;;;;17.59;100.00;99627.25;6314848;20;3593125;-59
2023/06/21 03:25:27;;;;;;;;;35.00;32.67;;;;;17.55;100.00;99636.66;6275492;20;2855516;-60
2023/06/21 03:27:59;;;;;;;;;34.33;31.33;;;;;17.70;100.00;99640.69;6312612;20;3568999;-60
2023/06/21 03:30:28;;;;;;;;;38.33;33.67;;;;;17.52;100.00;99636.94;6280339;20;3607626;-60
2023/06/21 03:32:56;;;;;;;;;30.33;28.33;;;;;17.34;100.00;99644.91;6282021;20;3583609;-59
2023/06/21 03:35:29;;;;;;;;;35.67;31.67;;;;;17.33;100.00;99643.19;6277512;20;3610057;-60
2023/06/21 03:37:57;;;;;;;;;33.67;31.00;;;;;17.65;100.00;99639.41;6313530;20;3602354;-60
2023/06/21 03:40:26;;;;;;;;;32.33;30.00;;;;;17.72;100.00;99641.41;6280776;20;3599310;-60
2023/06/21 03:42:55;;;;;;;;;39.67;34.33;;;;;17.74;100.00;99636.69;6276045;20;2851416;-60
2023/06/21 03:45:24;;;;;;;;;35.67;31.00;;;;;17.81;100.00;99634.28;6308363;20;2851662;-60
2023/06/21 03:47:52;;;;;;;;;36.33;32.33;;;;;17.89;100.00;99631.72;6313010;20;3587214;-59
2023/06/21 03:50:21;;;;;;;;;35.00;30.67;;;;;18.08;100.00;99636.28;6281987;20;3604444;-59
2023/06/21 03:52:49;;;;;;;;;32.00;29.67;;;;;18.44;100.00;99639.25;6281239;20;3594020;-60
2023/06/21 03:55:19;;;;;;;;;36.33;32.00;;;;;18.58;100.00;99644.22;6281978;20;3588819;-60
2023/06/21 03:57:48;;;;;;;;;41.00;34.00;;;;;18.61;100.00;99618.59;6281616;20;3607779;-59
2023/06/21 04:00:17;;;;;;;;;33.67;28.33;;;;;18.77;100.00;99615.28;6282691;20;3573358;-59
2023/06/21 04:02:46;;;;;;;;;41.67;34.67;;;;;18.98;100.00;99618.63;6280698;20;3606620;-60
2023/06/21 04:05:14;;;;;;;;;33.33;32.00;;;;;18.86;100.00;99619.84;6310616;20;3604578;-59
2023/06/21 04:07:43;;;;;;;;;31.67;29.67;;;;;18.99;100.00;99625.81;6281066;20;3585788;-59
2023/06/21 04:10:13;;;;;;;;;36.67;31.67;;;;;18.89;100.00;99618.69;6281985;20;3599302;-60
2023/06/21 04:12:41;;;;;;;;;33.33;31.67;;;;;19.10;100.00;99626.63;6283049;20;3598200;-59
2023/06/21 04:15:11;;;;;;;;;34.67;32.67;;;;;19.28;100.00;99630.25;6280844;20;3592974;-60
2023/06/21 04:17:39;;;;;;;;;35.33;30.33;;;;;19.26;99.37;99627.66;6281204;20;3588866;-60
2023/06/21 04:20:15;;;;;;;;;35.00;32.00;;;;;19.28;100.00;99630.25;6278369;20;3602404;-60
2023/06/21 04:22:45;;;;;;;;;33.00;31.33;;;;;19.63;100.00;99634.91;6314025;20;3582673;-60
2023/06/21 04:25:13;;;;;;;;;34.67;32.33;;;;;20.11;96.00;99632.84;6279811;20;3600258;-60
2023/06/21 04:27:45;;;;;;;;;38.00;32.67;;;;;20.20;93.01;99637.34;6278448;20;3573172;-59
2023/06/21 04:30:14;;;;;;;;;29.33;29.33;;;;;20.03;93.58;99638.22;6279624;20;3579555;-59
2023/06/21 04:32:45;;;;;;;;;39.67;32.67;;;;;19.99;96.38;99637.69;6282409;20;3597175;-60
2023/06/21 04:35:17;;;;;;;;;33.67;31.00;;;;;20.58;92.59;99643.47;6276544;20;3604518;-60
2023/06/21 04:37:47;;;;;;;;;37.00;32.25;;;;;20.71;90.05;99641.16;6280212;20;3602396;-59
2023/06/21 04:40:18;;;;;;;;;34.67;32.67;;;;;20.46;92.91;99637.41;6311311;20;3602370;-59
2023/06/21 04:42:54;;;;;;;;;38.67;32.67;;;;;20.29;93.55;99650.03;6280326;20;3608693;-60
2023/06/21 04:45:25;;;;;;;;;32.67;30.00;;;;;20.47;93.19;99647.28;6275501;20;3602356;-60
2023/06/21 04:47:57;;;;;;;;;36.33;31.67;;;;;20.65;92.05;99655.47;6312762;20;3595172;-60
2023/06/21 04:50:27;;;;;;;;;30.00;29.67;;;;;20.89;91.32;99645.72;6278243;20;3580555;-60
2023/06/21 04:52:59;;;;;;;;;30.67;29.33;;;;;21.41;89.13;99653.84;6281387;20;3585707;-60
2023/06/21 04:55:28;;;;;;;;;32.33;29.33;;;;;20.96;90.03;99652.25;6277232;20;3579454;-60
2023/06/21 04:57:58;;;;;;;;;36.00;30.67;;;;;20.76;90.92;99657.06;6281847;20;3598185;-60
2023/06/21 05:00:27;;;;;;;;;36.33;30.00;;;;;21.06;90.62;99672.06;6277813;20;3592082;-60
2023/06/21 05:02:56;;;;;;;;;37.00;32.67;;;;;21.09;88.75;99676.34;6279481;20;3610667;-60
2023/06/21 05:05:25;;;;;;;;;35.33;32.67;;;;;21.05;89.35;99682.13;6282356;20;3599657;-60
2023/06/21 05:07:53;;;;;;;;;30.67;30.00;;;;;21.40;87.70;99685.75;6281704;20;3589822;-60
2023/06/21 05:10:21;;;;;;;;;37.67;34.67;;;;;21.44;87.59;99692.63;6281366;20;3595045;-60
2023/06/21 05:12:50;;;;;;;;;34.00;31.33;;;;;21.31;87.98;99697.66;6277476;20;3611726;-60
2023/06/21 05:15:19;;;;;;;;;41.33;34.67;;;;;21.06;90.90;99699.38;6311686;20;3608586;-60
2023/06/21 05:17:47;;;;;;;;;35.33;31.67;;;;;21.05;90.54;99703.97;6285951;20;3596298;-59
2023/06/21 05:20:17;;;;;;;;;40.00;34.33;;;;;20.91;91.98;99712.78;6286526;20;3590930;-60
2023/06/21 05:22:46;;;;;;;;;39.00;34.67;;;;;21.10;92.26;99708.13;6287701;20;3573226;-60
2023/06/21 05:25:15;;;;;;;;;46.00;37.00;;;;;21.44;90.74;99710.88;6286611;20;3480561;-60
2023/06/21 05:27:43;;;;;;;;;42.33;35.33;;;;;21.98;88.47;99716.84;6317509;20;3583617;-60
2023/06/21 05:30:11;;;;;;;;;41.33;36.33;;;;;21.94;86.63;99714.66;6287458;20;3585379;-60
2023/06/21 05:32:39;;;;;;;;;40.33;34.67;;;;;22.18;85.11;99725.63;6285685;20;3574214;-60
2023/06/21 05:35:08;;;;;;;;;36.67;32.00;;;;;22.67;83.44;99725.72;6281952;20;3605560;-60
2023/06/21 05:37:37;;;;;;;;;40.00;34.33;;;;;22.67;84.55;99722.09;6316343;20;3593993;-60
2023/06/21 05:40:08;;;;;;;;;33.67;31.33;;;;;23.17;80.25;99729.25;6284216;20;3597202;-60
2023/06/21 05:42:37;;;;;;;;;35.67;31.67;;;;;23.36;79.44;99728.88;6287166;20;3608590;-59
2023/06/21 05:45:08;;;;;;;;;35.67;32.00;;;;;23.21;79.06;99730.63;6286598;20;3601336;-59
2023/06/21 05:47:36;;;;;;;;;32.67;30.33;;;;;23.51;78.34;99719.91;6289267;20;3596126;-59
2023/06/21 05:50:05;;;;;;;;;34.67;31.33;;;;;23.57;76.57;99719.22;6287162;20;3595110;-59
2023/06/21 05:52:35;;;;;;;;;35.00;31.67;;;;;23.73;77.15;99719.16;6285273;20;3601470;-59
2023/06/21 05:55:03;;;;;;;;;31.67;29.00;;;;;23.64;76.93;99720.19;6287828;20;3587791;-60
2023/06/21 05:57:32;;;;;;;;;30.67;29.00;;;;;23.76;77.79;99705.09;6288374;20;3581607;-60
2023/06/21 06:00:00;;;;;;;;;33.33;31.00;;;;;23.95;77.79;99717.50;6286193;20;3604546;-59
2023/06/21 06:02:29;;;;;;;;;33.33;31.00;;;;;24.27;77.17;99705.44;6283903;20;3603516;-60
2023/06/21 06:04:57;;;;;;;;;40.67;33.33;;;;;24.40;74.57;99709.47;6287902;20;3613816;-59
2023/06/21 06:07:26;;;;;;;;;33.75;31.50;;;;;24.39;76.63;99718.75;6285451;20;3598218;-59
2023/06/21 06:09:54;;;;;;;;;37.00;32.00;;;;;24.64;75.63;99725.78;6319329;20;3585813;-59
2023/06/21 06:12:23;;;;;;;;;32.33;30.33;;;;;24.80;75.62;99726.69;6286951;20;3585820;-59
2023/06/21 06:14:51;;;;;;;;;36.33;32.33;;;;;25.07;73.00;99723.34;6287377;20;3599210;-59
2023/06/21 06:17:20;;;;;;;;;36.00;31.50;;;;;25.37;72.87;99723.38;6286295;20;3610755;-59
2023/06/21 06:19:49;;;;;;;;;30.00;30.00;;;;;25.38;73.20;99722.31;6311434;20;3581608;-59
2023/06/21 06:22:18;;;;;;;;;32.00;30.00;;;;;25.59;72.01;99716.06;6306006;20;3587754;-60
2023/06/21 06:24:48;;;;;;;;;28.33;28.33;;;;;24.92;70.34;99715.06;6312872;20;3584646;-60
2023/06/21 06:27:16;;;;;;;;;28.33;25.67;;;;;25.51;71.90;99711.50;6278159;20;3589847;-59
2023/06/21 06:29:45;;;;;;;;;29.67;28.67;;;;;26.09;70.38;99716.28;6277891;20;3593397;-59
2023/06/21 06:32:13;;;;;;;;;27.67;25.33;;;;;26.72;67.00;99711.88;6273707;20;3581631;-60
2023/06/21 06:34:42;;;;;;;;;31.00;29.33;;;;;26.66;66.20;99720.94;6278564;20;3582033;-59
2023/06/21 06:37:11;;;;;;;;;30.25;29.00;;;;;26.46;68.19;99723.44;6281437;20;3602652;-59
2023/06/21 06:39:45;;;;;;;;;30.50;29.00;;;;;26.67;68.53;99730.88;6296340;20;3583666;-59
2023/06/21 06:42:16;;;;;;;;;34.57;31.57;;;;;26.51;67.16;99726.47;6328302;20;3601389;-60
2023/06/21 06:44:45;;;;;;;;;29.00;29.00;;;;;26.69;68.39;99726.03;6278022;20;3474261;-60
2023/06/21 06:47:14;;;;;;;;;27.00;26.00;;;;;27.23;67.03;99727.38;6311202;20;3582654;-60
2023/06/21 06:49:42;;;;;;;;;26.67;26.67;;;;;27.58;64.55;99730.97;6278791;20;3592051;-59
2023/06/21 06:52:13;;;;;;;;;28.33;28.33;;;;;27.56;65.39;99736.66;6278987;20;3577429;-59
2023/06/21 06:54:43;;;;;;;;;31.33;29.33;;;;;27.95;61.76;99732.44;6278735;20;3594084;-59
2023/06/21 06:57:11;;;;;;;;;31.33;29.67;;;;;28.16;63.43;99728.69;6279255;20;1896167;-59
2023/06/21 06:59:53;;;;;;;;;30.67;29.67;;;;;28.07;62.42;99724.41;6309016;20;3582566;-59
2023/06/21 07:02:24;;;;;;;;;31.57;29.43;;;;;28.07;62.56;99731.81;6327327;20;3596134;-59
2023/06/21 07:04:53;;;;;;;;;28.00;28.00;;;;;28.10;62.50;99732.28;6280504;20;3584694;-59
2023/06/21 07:07:21;;;;;;;;;26.67;24.67;;;;;28.51;62.19;99727.72;6281482;20;3571102;-59
2023/06/21 07:09:50;;;;;;;;;28.67;28.67;;;;;28.23;61.23;99732.31;6273746;20;3586716;-60
2023/06/21 07:12:19;;;;;;;;;22.00;22.00;;;;;28.82;60.30;99735.41;6272996;20;3582546;-59
2023/06/21 07:14:48;;;;;;;;;29.00;27.25;;;;;29.29;60.24;99736.25;6280687;20;3587793;-59
2023/06/21 07:17:21;;;;;;;;;27.71;27.57;;;;;29.45;58.93;99734.97;6326451;20;3574211;-60
2023/06/21 07:19:50;;;;;;;;;32.50;29.75;;;;;29.29;60.45;99730.72;6279490;20;3589838;-59
2023/06/21 07:22:19;;;;;;;;;30.33;29.00;;;;;29.09;59.49;99725.22;6307870;20;3583692;-59
2023/06/21 07:24:48;;;;;;;;;27.25;24.75;;;;;29.61;58.98;99723.41;6279533;20;3596122;-59
2023/06/21 07:27:17;;;;;;;;;33.00;29.67;;;;;29.83;58.77;99735.06;6307241;20;3588821;-59
2023/06/21 07:29:45;;;;;;;;;28.67;26.67;;;;;29.13;60.52;99731.19;6275571;20;1894078;-59
2023/06/21 07:32:16;;;;;;;;;29.14;26.86;;;;;29.31;59.25;99720.31;6330626;20;3576367;-59
2023/06/21 07:34:45;;;;;;;;;27.00;25.33;;;;;30.36;57.21;99732.09;6277951;20;3584103;-59
2023/06/21 07:37:16;;;;;;;;;28.14;28.14;;;;;30.01;56.72;99722.44;6329238;20;3582593;-61
2023/06/21 07:39:45;;;;;;;;;27.00;25.33;;;;;29.94;59.33;99723.31;6270896;20;3581766;-60
2023/06/21 07:42:23;;;;;;;;;27.67;26.00;;;;;29.87;59.13;99727.19;6307328;20;3588963;-61
2023/06/21 07:44:55;;;;;;;;;32.75;29.13;;;;;30.33;57.45;99721.47;6326968;20;3600411;-60
2023/06/21 07:47:27;;;;;;;;;29.14;27.29;;;;;30.26;56.93;99723.41;6328053;20;3585747;-61
2023/06/21 07:49:56;;;;;;;;;26.00;22.00;;;;;30.31;59.06;99728.28;6272485;20;3589890;-60
2023/06/21 07:52:40;;;;;;;;;30.75;30.00;;;;;30.37;57.61;99721.84;6313906;20;3596172;-61
2023/06/21 07:55:11;;;;;;;;;27.86;26.14;;;;;30.27;58.49;99725.09;6330729;20;3585695;-61
2023/06/21 07:57:43;;;;;;;;;25.86;24.57;;;;;31.45;55.35;99731.88;6294379;20;3598178;-61
2023/06/21 08:00:15;;;;;;;;;27.14;27.14;;;;;31.77;55.14;99735.34;6294373;20;3578430;-61
2023/06/21 08:02:46;;;;;;;;;27.43;27.43;;;;;31.22;54.26;99733.34;6293890;20;3594169;-60
2023/06/21 08:05:14;;;;;;;;;26.67;26.67;;;;;31.13;56.31;99731.09;6282243;20;3577276;-61
2023/06/21 08:07:45;;;;;;;;;27.57;27.29;;;;;31.21;53.81;99734.44;6296538;20;3579570;-60
2023/06/21 08:10:17;;;;;;;;;29.33;24.67;;;;;30.13;57.86;99729.00;6278971;20;3593002;-60
2023/06/21 08:12:46;;;;;;;;;29.25;28.00;;;;;30.75;59.25;99734.78;6274058;20;3589987;-60
2023/06/21 08:15:18;;;;;;;;;28.50;28.38;;;;;31.11;58.08;99739.63;6329469;20;3598188;-61
2023/06/21 08:17:46;;;;;;;;;29.33;27.33;;;;;31.51;54.95;99743.97;6312061;20;3584949;-60
2023/06/21 08:20:16;;;;;;;;;32.33;30.00;;;;;31.46;55.88;99742.72;6280111;20;3589908;-60
2023/06/21 08:22:45;;;;;;;;;30.00;28.75;;;;;30.94;55.68;99744.03;6280274;20;3588857;-60
2023/06/21 08:25:14;;;;;;;;;29.00;27.00;;;;;31.69;54.11;99736.50;6310126;20;3583759;-60
2023/06/21 08:27:45;;;;;;;;;26.29;25.86;;;;;31.54;54.91;99746.28;6323851;20;3592151;-61
2023/06/21 08:30:14;;;;;;;;;28.33;28.00;;;;;30.95;55.29;99745.75;6276537;20;3582725;-61
2023/06/21 08:32:43;;;;;;;;;27.67;26.00;;;;;31.80;54.33;99745.97;6277001;20;3593105;-61
2023/06/21 08:35:14;;;;;;;;;31.29;29.29;;;;;31.56;55.36;99747.75;6296581;20;3583887;-61
2023/06/21 08:37:57;;;;;;;;;28.67;27.67;;;;;31.89;50.37;99741.81;6281182;20;3576437;-61
2023/06/21 08:40:33;;;;;;;;;24.50;23.00;;;;;31.57;53.56;99741.13;6279116;20;3598160;-60
2023/06/21 08:43:03;;;;;;;;;29.00;29.00;;;;;31.74;54.03;99738.59;6307616;20;3594009;-61
2023/06/21 08:45:33;;;;;;;;;28.71;27.43;;;;;31.80;51.92;99740.41;6295714;20;3597207;-61
2023/06/21 08:48:06;;;;;;;;;26.43;26.29;;;;;32.39;51.60;99740.75;6296274;20;3598309;-61
2023/06/21 08:50:42;;;;;;;;;26.00;26.00;;;;;32.29;52.99;99746.03;6295706;20;3592989;-61
2023/06/21 08:53:25;;;;;;;;;29.57;28.00;;;;;32.94;49.94;99754.47;6297895;20;3576409;-62
2023/06/21 08:55:56;;;;;;;;;23.67;23.00;;;;;31.45;52.87;99746.59;6278199;20;3606525;-61
2023/06/21 08:58:33;;;;;;;;;27.86;27.86;;;;;32.33;54.21;99747.25;6296332;20;3587820;-61
2023/06/21 09:01:03;;;;;;;;;27.67;27.67;;;;;32.00;52.90;99743.00;6283660;20;3580115;-60
2023/06/21 09:03:55;;;;;;;;;23.00;23.00;;;;;31.78;53.06;99744.50;6278585;20;3596571;-61
2023/06/21 09:06:26;;;;;;;;;30.00;28.33;;;;;31.46;52.03;99744.66;6273695;20;3586839;-61
2023/06/21 09:08:57;;;;;;;;;30.43;29.00;;;;;32.28;51.15;99744.31;6299298;20;3569151;-61
2023/06/21 09:11:27;;;;;;;;;28.33;28.33;;;;;32.16;51.85;99741.50;6283876;20;1890918;-61
2023/06/21 09:13:58;;;;;;;;;27.14;25.57;;;;;31.75;50.65;99745.81;6330274;20;3587995;-62
2023/06/21 09:16:29;;;;;;;;;25.71;25.71;;;;;31.82;51.16;99745.75;6298597;20;3578184;-61
2023/06/21 09:19:01;;;;;;;;;22.86;21.57;;;;;31.63;51.50;99747.69;6297857;20;3582710;-60
2023/06/21 09:21:31;;;;;;;;;24.25;23.50;;;;;32.40;51.70;99748.00;6283720;20;3587797;-60
2023/06/21 09:24:02;;;;;;;;;26.29;24.71;;;;;31.80;51.66;99747.91;6325088;20;3575406;-61
2023/06/21 09:26:30;;;;;;;;;27.00;26.00;;;;;32.08;50.28;99751.00;6284330;20;3585906;-60
2023/06/21 09:28:59;;;;;;;;;20.00;20.00;;;;;31.92;51.55;99751.63;6274904;20;3565960;-58
2023/06/21 09:31:30;;;;;;;;;26.14;25.43;;;;;31.92;49.49;99758.06;6332370;20;3598168;-61
2023/06/21 09:34:01;;;;;;;;;24.71;24.71;;;;;32.19;48.55;99745.75;6299880;20;3602454;-60
2023/06/21 09:36:32;;;;;;;;;25.29;23.71;;;;;32.16;50.13;99762.91;6300487;20;3596239;-60
2023/06/21 09:39:11;;;;;;;;;25.14;25.14;;;;;33.37;48.12;99755.28;6298169;20;3593148;-59
2023/06/21 09:41:43;;;;;;;;;29.14;28.43;;;;;33.38;46.37;99755.00;6299706;20;3573212;-60
2023/06/21 09:44:14;;;;;;;;;25.43;22.14;;;;;33.39;46.63;99753.09;6298094;20;3579409;-60
2023/06/21 09:46:48;;;;;;;;;24.57;24.57;;;;;32.81;47.87;99757.47;6298576;20;3592055;-60
2023/06/21 09:49:16;;;;;;;;;22.67;20.33;;;;;32.36;49.53;99757.88;6282281;20;1889891;-60
2023/06/21 09:51:46;;;;;;;;;29.00;26.67;;;;;32.52;49.02;99754.50;6312301;20;3578609;-60
2023/06/21 09:54:17;;;;;;;;;27.14;26.14;;;;;33.40;47.45;99752.84;6324178;20;3578965;-60
2023/06/21 09:56:46;;;;;;;;;26.00;25.00;;;;;33.69;46.83;99750.19;6278543;20;3589909;-61
2023/06/21 09:59:20;;;;;;;;;26.14;25.57;;;;;33.94;45.94;99757.38;6328155;20;3583573;-60
2023/06/21 10:01:53;;;;;;;;;25.75;24.75;;;;;32.78;46.94;99744.91;6299601;20;3602322;-60
2023/06/21 10:04:25;;;;;;;;;29.14;25.14;;;;;32.72;49.16;99745.00;6329942;20;3580501;-61
2023/06/21 10:06:56;;;;;;;;;26.57;25.57;;;;;33.13;50.49;99743.28;6297802;20;3588823;-61
2023/06/21 10:09:36;;;;;;;;;26.29;24.29;;;;;32.77;48.58;99747.91;6297495;20;3585710;-60
2023/06/21 10:12:13;;;;;;;;;27.00;27.00;;;;;31.71;48.50;99745.44;6297733;20;3590935;-62
2023/06/21 10:14:44;;;;;;;;;25.86;25.86;;;;;32.23;49.03;99752.50;6299455;20;3606497;-61
2023/06/21 10:17:16;;;;;;;;;23.43;23.00;;;;;32.77;46.42;99753.47;6299744;20;3584740;-61
2023/06/21 10:19:47;;;;;;;;;25.17;25.00;;;;;32.69;44.74;99767.72;6294403;20;3525349;-61
2023/06/21 10:22:20;;;;;;;;;25.43;24.57;;;;;32.73;47.01;99758.69;6294998;20;3583709;-60
2023/06/21 10:24:54;;;;;;;;;24.50;23.00;;;;;32.66;47.20;99748.75;6301468;20;3602335;-61
2023/06/21 10:27:25;;;;;;;;;22.43;21.57;;;;;32.14;47.13;99741.72;6327010;20;3594018;-61
2023/06/21 10:29:57;;;;;;;;;26.67;25.67;;;;;31.66;49.05;99748.06;6270047;20;3600260;-61
2023/06/21 10:32:29;;;;;;;;;26.00;26.00;;;;;31.96;48.74;99752.88;6278704;20;3590990;-61
2023/06/21 10:35:15;;;;;;;;;27.75;26.00;;;;;32.16;46.98;99749.84;6277077;20;3596161;-61
2023/06/21 10:38:14;;;;;;;;;24.43;22.57;;;;;32.44;48.71;99749.25;6325534;20;3581582;-61
2023/06/21 10:40:46;;;;;;;;;27.00;25.43;;;;;32.21;47.22;99744.44;6298480;20;3598170;-62
2023/06/21 10:43:19;;;;;;;;;25.00;24.57;;;;;32.69;48.06;99756.59;6296800;20;3590671;-61
2023/06/21 10:45:51;;;;;;;;;26.29;24.71;;;;;32.10;48.42;99748.00;6292568;20;3599265;-61
2023/06/21 10:48:23;;;;;;;;;24.14;24.00;;;;;32.13;50.97;99740.03;6296166;20;3592307;-61
2023/06/21 10:50:52;;;;;;;;;21.67;20.00;;;;;32.18;51.58;99741.25;6282133;20;3571122;-62
2023/06/21 10:53:23;;;;;;;;;27.00;26.00;;;;;32.46;47.62;99743.44;6279580;20;3583599;-63
2023/06/21 10:55:53;;;;;;;;;25.00;24.00;;;;;32.29;49.77;99740.47;6279403;20;3596134;-62
2023/06/21 10:58:22;;;;;;;;;28.00;26.50;;;;;32.77;48.67;99742.34;6278045;20;3589875;-62
2023/06/21 11:00:55;;;;;;;;;24.57;24.57;;;;;32.31;47.42;99733.59;6328153;20;3576307;-62
2023/06/21 11:03:27;;;;;;;;;26.43;24.71;;;;;32.81;48.56;99743.56;6296267;20;3604455;-62
2023/06/21 11:06:33;;;;;;;;;22.71;21.14;;;;;32.93;47.51;99747.19;6297834;20;3573227;-62
2023/06/21 11:09:16;;;;;;;;;25.43;24.43;;;;;32.70;48.90;99742.47;6298341;20;3598288;-62
2023/06/21 11:11:52;;;;;;;;;21.57;21.57;;;;;33.32;46.42;99744.84;6299051;20;3583636;-63
2023/06/21 11:14:31;;;;;;;;;30.88;26.63;;;;;34.49;43.60;99745.69;6300464;20;3598161;-61
2023/06/21 11:17:14;;;;;;;;;25.57;24.00;;;;;33.97;44.72;99738.25;6326085;20;3588912;-61